Time;durP1;ratioP1;P1;durP2;ratioP2;P2;SDS_P1;SDS_P2;PMS_P1;PMS_P2;Temp;Humidity;BMP_temperature;BMP_pressure;BME280_temperature;BME280_humidity;BME280_pressure;Samples;Min_cycle;Max_cycle;Signal;HPM_P1;HPM_P2
2022/05/25 00:01:34;;;;;;;1.60;0.63;;;;;;;24.03;45.47;99373.34;5060087;28;20362;-84
2022/05/25 00:04:03;;;;;;;3.67;1.00;;;;;;;24.02;45.42;99372.47;5063907;28;20062;-85
2022/05/25 00:06:29;;;;;;;1.48;0.50;;;;;;;23.99;45.55;99375.38;5064988;28;20036;-84
2022/05/25 00:08:54;;;;;;;2.05;0.60;;;;;;;23.98;45.37;99365.69;5058911;28;20036;-84
2022/05/25 00:11:20;;;;;;;1.35;0.75;;;;;;;23.98;45.43;99376.34;5058498;28;20025;-85
2022/05/25 00:13:46;;;;;;;2.05;0.70;;;;;;;23.96;45.59;99372.94;5076514;28;20084;-85
2022/05/25 00:16:12;;;;;;;2.03;0.70;;;;;;;23.97;45.54;99369.34;5058790;28;20063;-85
2022/05/25 00:19:58;;;;;;;3.03;1.05;;;;;;;23.96;45.55;99371.13;5058326;28;20021;-85
2022/05/25 00:21:24;;;;;;;1.65;0.50;;;;;;;23.96;45.48;99370.28;5075998;28;20024;-85
2022/05/25 00:23:49;;;;;;;2.08;0.68;;;;;;;23.95;45.46;99365.91;5058828;28;20357;-85
2022/05/25 00:26:15;;;;;;;1.58;0.75;;;;;;;23.95;45.36;99372.09;5059199;28;20025;-85
2022/05/25 00:28:40;;;;;;;4.00;0.73;;;;;;;23.95;45.48;99360.59;5076156;28;20024;-85
2022/05/25 00:31:08;;;;;;;2.13;0.65;;;;;;;23.92;45.50;99361.66;5058337;28;20058;-85
2022/05/25 00:33:34;;;;;;;1.77;0.68;;;;;;;23.92;45.57;99361.66;5058634;28;20017;-84
2022/05/25 00:35:59;;;;;;;2.88;0.90;;;;;;;23.91;45.61;99359.13;5077998;28;20032;-84
2022/05/25 00:38:25;;;;;;;2.10;0.73;;;;;;;23.90;45.57;99370.72;5056861;28;20025;-82
2022/05/25 00:40:51;;;;;;;1.45;0.45;;;;;;;23.89;45.46;99361.91;5057049;28;20024;-84
2022/05/25 00:43:16;;;;;;;2.38;0.73;;;;;;;23.90;45.64;99376.06;5059756;28;20111;-85
2022/05/25 00:45:45;;;;;;;1.52;0.70;;;;;;;23.87;45.65;99369.16;5059282;28;20082;-85
2022/05/25 00:48:38;;;;;;;3.67;0.73;;;;;;;23.86;45.44;99364.78;5058999;28;20138;-85
2022/05/25 00:51:21;;;;;;;3.53;0.80;;;;;;;23.87;45.52;99359.34;5065970;28;20465;-85
2022/05/25 00:54:10;;;;;;;2.65;0.90;;;;;;;23.86;45.59;99365.66;5076366;28;20028;-86
2022/05/25 00:56:42;;;;;;;1.65;0.60;;;;;;;23.86;45.48;99356.78;5058566;28;20021;-85
2022/05/25 00:59:17;;;;;;;2.50;0.70;;;;;;;23.85;45.63;99365.75;5057281;28;20025;-84
2022/05/25 01:01:43;;;;;;;2.33;0.60;;;;;;;23.85;45.66;99365.75;5057004;28;20052;-83
2022/05/25 01:04:10;;;;;;;2.38;0.60;;;;;;;23.84;45.49;99380.91;5057641;28;20120;-84
2022/05/25 01:06:54;;;;;;;2.88;0.77;;;;;;;23.82;45.69;99382.81;5057803;28;20029;-83
2022/05/25 01:09:45;;;;;;;1.05;0.60;;;;;;;23.82;45.59;99382.81;5057737;28;20021;-83
2022/05/25 01:12:16;;;;;;;1.85;0.70;;;;;;;23.81;45.56;99386.47;5075870;28;20039;-85
2022/05/25 01:14:55;;;;;;;1.65;0.63;;;;;;;23.82;45.56;99385.50;5058284;28;20028;-85
2022/05/25 01:17:35;;;;;;;1.48;0.63;;;;;;;23.81;45.45;99381.13;5061474;28;20028;-83
2022/05/25 01:20:08;;;;;;;1.85;0.75;;;;;;;23.80;45.67;99379.44;5061926;28;20020;-85
2022/05/25 01:22:59;;;;;;;2.17;0.60;;;;;;;23.79;45.65;99372.41;5061979;28;20469;-86
2022/05/25 01:26:03;;;;;;;3.60;0.80;;;;;;;23.79;45.60;99379.53;5063782;28;20024;-87
2022/05/25 01:28:58;;;;;;;2.03;0.70;;;;;;;23.78;45.65;99370.69;5081672;28;20033;-85
2022/05/25 01:31:32;;;;;;;3.05;0.70;;;;;;;23.76;45.66;99369.13;5082683;28;20025;-88
2022/05/25 01:34:09;;;;;;;2.35;0.80;;;;;;;23.75;45.66;99360.28;5084379;28;20020;-85
2022/05/25 01:37:13;;;;;;;2.35;0.70;;;;;;;23.76;45.60;99351.31;5066421;28;20027;-85
2022/05/25 01:39:44;;;;;;;2.83;0.90;;;;;;;23.73;45.69;99351.56;5066519;28;20470;-87
2022/05/25 01:42:17;;;;;;;2.28;0.60;;;;;;;23.74;45.69;99363.91;5067816;28;20024;-87
2022/05/25 01:44:52;;;;;;;1.70;0.45;;;;;;;23.73;45.71;99354.22;5066939;28;20024;-87
2022/05/25 01:47:23;;;;;;;1.75;0.50;;;;;;;23.72;45.63;99349.81;5084753;28;20024;-84
2022/05/25 01:50:32;;;;;;;1.10;0.52;;;;;;;23.73;45.89;99351.56;5066313;28;20148;-86
2022/05/25 01:53:01;;;;;;;2.25;0.60;;;;;;;23.71;45.63;99348.13;4998352;28;20157;-84
2022/05/25 01:55:37;;;;;;;1.60;0.60;;;;;;;23.72;45.63;99344.50;5051689;28;20476;-85
2022/05/25 01:58:08;;;;;;;1.47;0.40;;;;;;;23.71;45.72;99354.31;5062370;28;20112;-85
2022/05/25 02:00:37;;;;;;;1.60;0.57;;;;;;;23.69;45.70;99361.56;5078881;28;20178;-86
2022/05/25 02:06:12;;;;;;;1.90;0.63;;;;;;;23.68;45.73;99372.34;5079080;28;20032;-85
2022/05/25 02:09:01;;;;;;;1.73;0.60;;;;;;;23.67;45.87;99370.66;5063676;28;20112;-85
2022/05/25 02:11:35;;;;;;;1.58;0.63;;;;;;;23.67;45.67;99373.31;5059664;28;20036;-86
2022/05/25 02:14:25;;;;;;;2.40;0.90;;;;;;;23.64;45.71;99363.75;5060155;28;20013;-84
2022/05/25 02:17:06;;;;;;;2.58;0.90;;;;;;;23.64;45.80;99366.41;5077633;28;20040;-86
2022/05/25 02:20:00;;;;;;;1.73;0.50;;;;;;;23.65;45.68;99380.56;5060327;28;20021;-84
2022/05/25 02:22:45;;;;;;;1.67;0.50;;;;;;;23.63;45.62;99382.50;5059642;28;20089;-85
2022/05/25 02:25:18;;;;;;;2.28;0.47;;;;;;;23.63;45.75;99390.50;5059573;28;20369;-84
2022/05/25 02:28:00;;;;;;;1.73;0.55;;;;;;;23.63;46.00;99393.97;5059883;28;20343;-84
2022/05/25 02:30:28;;;;;;;3.00;0.75;;;;;;;23.62;45.76;99394.13;5077542;28;20024;-84
2022/05/25 02:33:02;;;;;;;1.30;0.40;;;;;;;23.60;45.70;99399.56;5061066;28;20420;-85
2022/05/25 02:35:28;;;;;;;1.50;0.70;;;;;;;23.59;45.91;99398.69;5060044;28;20025;-84
2022/05/25 02:37:59;;;;;;;2.45;0.90;;;;;;;23.60;45.83;99402.22;5060037;28;20115;-85
2022/05/25 02:40:27;;;;;;;1.98;0.60;;;;;;;23.57;45.75;99395.28;5077938;28;20082;-85
2022/05/25 02:43:49;;;;;;;2.63;0.70;;;;;;;23.59;45.70;99405.84;5078333;28;20063;-84
2022/05/25 02:46:15;;;;;;;0.90;0.50;;;;;;;23.57;45.70;99411.28;5031038;28;20089;-86
2022/05/25 02:48:40;;;;;;;1.77;0.82;;;;;;;23.58;45.62;99415.63;5059770;28;20024;-85
2022/05/25 02:51:07;;;;;;;1.63;0.52;;;;;;;23.56;45.72;99412.25;5059973;28;20375;-84
2022/05/25 02:53:33;;;;;;;1.30;0.52;;;;;;;23.55;45.90;99413.22;5077329;28;20063;-85
2022/05/25 02:55:59;;;;;;;2.05;0.68;;;;;;;23.55;45.96;99413.22;5059819;28;20020;-84
2022/05/25 02:58:24;;;;;;;2.40;0.60;;;;;;;23.55;45.74;99420.34;5077348;28;20051;-86
2022/05/25 03:00:50;;;;;;;2.33;0.60;;;;;;;23.53;45.75;99420.44;5059287;28;20040;-86
2022/05/25 03:03:15;;;;;;;2.20;0.50;;;;;;;23.54;45.71;99427.47;5076731;28;20584;-84
2022/05/25 03:05:44;;;;;;;1.02;0.57;;;;;;;23.54;45.90;99427.47;5059119;28;20029;-85
2022/05/25 03:08:10;;;;;;;2.50;0.73;;;;;;;23.52;45.79;99434.72;5076858;28;20033;-83
2022/05/25 03:10:36;;;;;;;2.75;0.85;;;;;;;23.52;45.83;99433.84;5059828;28;20017;-84
2022/05/25 03:13:08;;;;;;;1.98;0.50;;;;;;;23.51;46.04;99422.38;5059654;28;20472;-84
2022/05/25 03:15:34;;;;;;;2.80;0.60;;;;;;;23.51;45.56;99430.38;5058884;28;20365;-86
2022/05/25 03:18:00;;;;;;;1.85;0.57;;;;;;;23.52;45.71;99442.72;5077135;28;20453;-83
2022/05/25 03:20:26;;;;;;;2.53;0.50;;;;;;;23.50;45.65;99441.13;5058947;28;20025;-85
2022/05/25 03:22:52;;;;;;;1.75;0.60;;;;;;;23.49;45.56;99445.63;5077118;28;20402;-84
2022/05/25 03:25:17;;;;;;;4.50;1.25;;;;;;;23.50;45.80;99452.63;5059047;28;20025;-84
2022/05/25 03:27:44;;;;;;;2.38;0.70;;;;;;;23.49;45.79;99464.25;5059271;28;20021;-84
2022/05/25 03:30:13;;;;;;;2.60;1.02;;;;;;;23.48;45.71;99462.53;5059050;28;20059;-85
2022/05/25 03:32:39;;;;;;;2.70;0.73;;;;;;;23.47;45.56;99463.50;5059307;28;20090;-86
2022/05/25 03:35:06;;;;;;;1.48;0.55;;;;;;;23.47;45.60;99458.16;5059557;28;20024;-83
2022/05/25 03:37:32;;;;;;;2.88;0.68;;;;;;;23.46;45.56;99467.13;5058758;28;20112;-86
2022/05/25 03:39:58;;;;;;;1.77;0.63;;;;;;;23.46;45.43;99477.78;5057677;28;20583;-85
2022/05/25 03:42:24;;;;;;;2.72;0.80;;;;;;;23.44;45.76;99480.53;5058845;28;20047;-85
2022/05/25 03:44:50;;;;;;;3.35;0.75;;;;;;;23.44;45.61;99485.03;5080883;28;20469;-85
2022/05/25 03:47:17;;;;;;;2.90;0.65;;;;;;;23.44;45.66;99479.72;5063388;28;20111;-84
2022/05/25 03:49:43;;;;;;;3.20;0.50;;;;;;;23.43;45.38;99484.16;5080262;28;20028;-88
2022/05/25 03:52:10;;;;;;;2.10;0.70;;;;;;;23.41;45.67;99479.91;5061595;28;20480;-86
2022/05/25 03:54:37;;;;;;;3.05;0.85;;;;;;;23.42;45.26;99486.94;5062158;28;20031;-88
2022/05/25 03:57:04;;;;;;;3.47;0.70;;;;;;;23.40;45.36;99486.19;5080640;28;20031;-86
2022/05/25 03:59:30;;;;;;;2.50;0.60;;;;;;;23.40;45.27;99484.41;5062650;28;20031;-85
2022/05/25 04:01:55;;;;;;;2.35;0.60;;;;;;;23.40;45.29;99488.88;5081449;28;20075;-87
2022/05/25 04:04:21;;;;;;;2.25;0.50;;;;;;;23.39;45.24;99484.50;5064549;28;20025;-86
2022/05/25 04:06:46;;;;;;;3.30;0.70;;;;;;;23.39;45.39;99487.16;5065002;28;20043;-86
2022/05/25 04:09:12;;;;;;;3.03;0.50;;;;;;;23.38;45.32;99490.78;5065057;28;20032;-87
2022/05/25 04:11:40;;;;;;;2.33;0.40;;;;;;;23.37;45.05;99494.41;5081521;28;20063;-86
2022/05/25 04:14:06;;;;;;;2.42;0.63;;;;;;;23.36;45.16;99498.03;5079784;28;20052;-87
2022/05/25 04:16:32;;;;;;;3.17;0.70;;;;;;;23.36;45.11;99500.69;5078830;28;20050;-85
2022/05/25 04:18:58;;;;;;;3.10;0.63;;;;;;;23.35;45.24;99509.63;5076757;28;20028;-84
2022/05/25 04:21:23;;;;;;;2.28;0.50;;;;;;;23.32;45.29;99518.69;5058613;28;20028;-86
2022/05/25 04:23:49;;;;;;;2.90;0.95;;;;;;;23.33;45.05;99523.91;5060435;28;20106;-86
2022/05/25 04:26:14;;;;;;;1.58;0.60;;;;;;;23.31;45.16;99520.53;5059185;28;20423;-86
2022/05/25 04:28:40;;;;;;;1.70;0.57;;;;;;;23.33;45.09;99537.22;5059278;28;20039;-88
2022/05/25 04:31:06;;;;;;;1.58;0.40;;;;;;;23.30;45.15;99532.06;5059183;28;20066;-87
2022/05/25 04:33:31;;;;;;;1.85;0.50;;;;;;;23.30;45.15;99532.06;5058326;28;20062;-86
2022/05/25 04:35:58;;;;;;;2.83;0.80;;;;;;;23.29;45.22;99543.69;5076305;28;20028;-87
2022/05/25 04:38:24;;;;;;;3.42;0.50;;;;;;;23.29;45.21;99557.00;5076562;28;20034;-85
2022/05/25 04:40:49;;;;;;;1.15;0.40;;;;;;;23.29;45.31;99557.00;5059284;28;20032;-85
2022/05/25 04:43:18;;;;;;;2.33;0.50;;;;;;;23.28;44.99;99560.63;5058882;28;20495;-86
2022/05/25 04:45:46;;;;;;;1.10;0.73;;;;;;;23.28;45.14;99565.06;5059534;28;20037;-86
2022/05/25 04:48:15;;;;;;;2.10;0.63;;;;;;;23.27;45.05;99569.56;5059863;28;20032;-85
2022/05/25 04:50:43;;;;;;;1.58;0.50;;;;;;;23.27;45.17;99574.91;5059156;28;20355;-85
2022/05/25 04:53:12;;;;;;;2.67;0.60;;;;;;;23.26;45.10;99578.53;5058390;28;20081;-84
2022/05/25 04:58:25;;;;;;;5.40;0.60;;;;;;;23.25;45.05;99582.13;5079857;28;20047;-84
2022/05/25 05:00:52;;;;;;;1.25;0.40;;;;;;;23.26;45.31;99582.97;5063786;28;20147;-85
2022/05/25 05:03:19;;;;;;;2.25;0.50;;;;;;;23.25;44.88;99581.28;5062621;28;20028;-85
2022/05/25 05:05:45;;;;;;;2.33;0.50;;;;;;;23.24;45.14;99587.56;5062488;28;20024;-85
2022/05/25 05:08:11;;;;;;;1.35;0.40;;;;;;;23.24;44.94;99585.75;5062161;28;20031;-85
2022/05/25 05:10:37;;;;;;;1.45;0.43;;;;;;;23.23;45.12;99589.38;5078532;28;20093;-85
2022/05/25 05:13:04;;;;;;;3.17;0.50;;;;;;;23.24;45.19;99585.75;5060471;28;20120;-84
2022/05/25 05:15:39;;;;;;;1.88;0.50;;;;;;;23.23;45.06;99594.69;5060466;28;20028;-82
2022/05/25 05:18:05;;;;;;;2.35;0.50;;;;;;;23.23;44.91;99597.34;5060289;28;20465;-82
2022/05/25 05:20:31;;;;;;;4.40;0.68;;;;;;;23.21;44.80;99601.94;5078201;28;20032;-83
2022/05/25 05:22:57;;;;;;;2.60;0.63;;;;;;;23.21;44.96;99609.94;5077416;28;20036;-84
2022/05/25 05:25:24;;;;;;;3.03;0.70;;;;;;;23.21;45.00;99607.25;5055612;28;20373;-85
2022/05/25 05:27:49;;;;;;;0.85;0.40;;;;;;;23.19;44.90;99620.66;5077811;28;20028;-83
2022/05/25 05:30:18;;;;;;;1.83;0.40;;;;;;;23.20;44.95;99624.19;5047895;28;20128;-82
2022/05/25 05:32:44;;;;;;;2.05;0.60;;;;;;;23.19;44.84;99625.13;5065548;28;20024;-82
2022/05/25 05:35:10;;;;;;;1.35;0.43;;;;;;;23.18;44.98;99634.94;5049804;28;20129;-83
2022/05/25 05:37:40;;;;;;;1.98;0.60;;;;;;;23.17;45.28;99643.88;5055305;28;20025;-82
2022/05/25 05:40:08;;;;;;;4.57;0.63;;;;;;;23.15;45.24;99645.78;5052900;28;20574;-84
2022/05/25 05:42:38;;;;;;;2.70;0.80;;;;;;;23.16;45.26;99651.97;5078779;28;20043;-83
2022/05/25 05:45:27;;;;;;;2.50;0.50;;;;;;;23.17;45.28;99648.34;5061879;28;20029;-83
2022/05/25 05:48:06;;;;;;;3.08;0.60;;;;;;;23.16;45.25;99647.47;5061094;28;20115;-83
2022/05/25 05:51:04;;;;;;;1.52;0.35;;;;;;;23.17;45.21;99651.00;5061355;28;20506;-84
2022/05/25 05:53:30;;;;;;;2.95;0.60;;;;;;;23.15;45.15;99653.75;5078814;28;20032;-85
2022/05/25 05:55:58;;;;;;;3.60;0.63;;;;;;;23.17;45.21;99665.19;5078475;28;20035;-86
2022/05/25 05:58:24;;;;;;;3.63;0.77;;;;;;;23.16;45.37;99657.28;5062328;28;20040;-84
2022/05/25 06:00:50;;;;;;;1.80;0.40;;;;;;;23.15;45.32;99655.59;5061003;28;20052;-86
2022/05/25 06:03:16;;;;;;;2.78;0.50;;;;;;;23.16;45.23;99657.28;5078937;28;20036;-84
2022/05/25 06:05:44;;;;;;;3.03;0.50;;;;;;;23.16;45.10;99663.44;5060835;28;20343;-84
2022/05/25 06:08:14;;;;;;;3.42;0.70;;;;;;;23.16;45.12;99662.63;5060137;28;20039;-83
2022/05/25 06:10:41;;;;;;;5.22;0.80;;;;;;;23.16;45.11;99667.94;5061317;28;20513;-85
2022/05/25 06:13:07;;;;;;;3.20;0.63;;;;;;;23.16;45.16;99665.28;5063338;28;20046;-85
2022/05/25 06:21:09;;;;;;;3.72;0.77;;;;;;;23.20;45.21;99682.75;5062302;28;20055;-84
2022/05/25 06:23:35;;;;;;;4.35;0.70;;;;;;;23.18;44.98;99672.22;5062496;28;20062;-83
2022/05/25 06:26:00;;;;;;;4.22;0.80;;;;;;;23.19;44.89;99678.38;5044465;28;20070;-85
2022/05/25 06:28:26;;;;;;;2.38;0.55;;;;;;;23.19;44.86;99679.22;5062315;28;20084;-84
2022/05/25 06:30:53;;;;;;;5.95;0.73;;;;;;;23.18;45.10;99687.31;5062941;28;20110;-85
2022/05/25 06:33:19;;;;;;;4.03;0.90;;;;;;;23.19;45.08;99691.69;5045329;28;20366;-85
2022/05/25 06:35:45;;;;;;;3.45;0.70;;;;;;;23.19;45.16;99694.34;5045741;28;20040;-86
2022/05/25 06:38:10;;;;;;;4.57;0.63;;;;;;;23.21;44.92;99687.13;5062292;28;20036;-86
2022/05/25 06:40:36;;;;;;;3.20;1.00;;;;;;;23.22;45.08;99691.47;5064224;28;20052;-85
2022/05/25 06:43:02;;;;;;;3.70;0.75;;;;;;;23.23;45.05;99698.50;5067437;28;20062;-87
2022/05/25 06:45:27;;;;;;;3.80;0.60;;;;;;;23.24;45.18;99694.88;5082215;28;20433;-84
2022/05/25 06:47:53;;;;;;;5.80;0.60;;;;;;;23.25;45.06;99696.59;5079341;28;20437;-84
2022/05/25 06:50:18;;;;;;;5.18;0.73;;;;;;;23.25;44.93;99699.25;5056862;28;20040;-85
2022/05/25 06:52:44;;;;;;;4.32;0.80;;;;;;;23.27;44.64;99701.81;5040359;28;20025;-81
2022/05/25 06:55:15;;;;;;;3.75;0.73;;;;;;;23.27;45.10;99694.69;5053502;28;20032;-83
2022/05/25 06:57:44;;;;;;;6.00;0.93;;;;;;;23.29;45.08;99710.56;5059630;28;20099;-82
2022/05/25 07:00:38;;;;;;;4.97;0.80;;;;;;;23.31;44.89;99706.03;5057852;28;20044;-83
2022/05/25 07:03:29;;;;;;;5.95;1.17;;;;;;;23.32;44.92;99705.94;5058552;28;20044;-83
2022/05/25 07:12:24;;;;;;;7.35;0.90;;;;;;;23.36;45.06;99716.34;4977367;28;20088;-84
2022/05/25 07:14:50;;;;;;;4.38;0.98;;;;;;;23.33;44.95;99726.25;4961157;28;20042;-84
2022/05/25 07:17:15;;;;;;;2.67;0.60;;;;;;;23.36;44.94;99727.00;4961583;28;20030;-84
2022/05/25 07:19:41;;;;;;;5.47;0.90;;;;;;;23.36;44.86;99729.66;5000163;28;20484;-84
2022/05/25 07:22:09;;;;;;;3.50;0.80;;;;;;;23.36;45.07;99729.66;5059764;28;20029;-86
2022/05/25 07:24:34;;;;;;;5.78;0.90;;;;;;;23.35;44.99;99739.47;5059487;28;20358;-84
2022/05/25 07:27:00;;;;;;;4.10;0.80;;;;;;;23.33;45.02;99734.25;5080100;28;20084;-84
2022/05/25 07:29:26;;;;;;;3.67;0.90;;;;;;;23.33;44.96;99739.56;5077919;28;20407;-84
2022/05/25 07:31:58;;;;;;;3.50;0.95;;;;;;;23.37;44.92;99734.03;5078171;28;20024;-86
2022/05/25 07:34:27;;;;;;;3.15;0.70;;;;;;;23.37;44.99;99739.34;5059807;28;20028;-84
2022/05/25 07:37:03;;;;;;;6.22;0.80;;;;;;;23.39;44.93;99737.47;5060330;28;20024;-83
2022/05/25 07:39:34;;;;;;;3.15;0.90;;;;;;;23.43;44.84;99745.13;5059721;28;20368;-84
2022/05/25 07:42:03;;;;;;;6.63;0.95;;;;;;;23.43;44.82;99749.59;5078352;28;20033;-82
2022/05/25 07:44:36;;;;;;;4.32;1.00;;;;;;;23.43;44.84;99760.25;5076376;28;20119;-83
2022/05/25 07:47:03;;;;;;;4.82;0.60;;;;;;;23.40;44.96;99756.00;5058852;28;20115;-84
2022/05/25 07:49:29;;;;;;;4.53;1.13;;;;;;;23.41;44.94;99762.16;5059000;28;20453;-85
2022/05/25 07:51:55;;;;;;;4.13;0.77;;;;;;;23.39;44.91;99756.09;5058890;28;20035;-84
2022/05/25 07:54:22;;;;;;;8.07;1.20;;;;;;;23.39;44.91;99764.09;5076626;28;20020;-85
2022/05/25 07:56:47;;;;;;;4.55;0.77;;;;;;;23.39;44.87;99758.75;5058728;28;20473;-85
2022/05/25 07:59:15;;;;;;;4.85;0.70;;;;;;;23.42;44.91;99764.75;5058547;28;20035;-85
2022/05/25 08:07:22;;;;;;;6.20;1.13;;;;;;;23.45;44.92;99779.66;5056856;28;20059;-85
2022/05/25 08:09:48;;;;;;;3.42;0.75;;;;;;;23.45;44.87;99775.16;5039761;28;20031;-85
2022/05/25 08:12:15;;;;;;;6.25;1.00;;;;;;;23.45;44.89;99769.84;5041054;28;20438;-85
2022/05/25 08:14:41;;;;;;;2.97;0.75;;;;;;;23.47;45.00;99775.06;5040768;28;20029;-86
2022/05/25 08:17:07;;;;;;;3.92;0.90;;;;;;;23.50;45.05;99782.00;5040325;28;20036;-86
2022/05/25 08:19:33;;;;;;;5.07;0.75;;;;;;;23.50;44.71;99782.88;5037343;28;20036;-85
2022/05/25 08:21:59;;;;;;;3.97;1.00;;;;;;;23.51;45.16;99789.91;5038221;28;20040;-85
2022/05/25 08:24:24;;;;;;;3.80;0.77;;;;;;;23.53;44.63;99787.97;5056018;28;20021;-85
2022/05/25 08:26:50;;;;;;;3.40;0.90;;;;;;;23.54;44.78;99781.69;5040337;28;20040;-85
2022/05/25 08:29:15;;;;;;;3.28;0.80;;;;;;;23.53;44.84;99787.97;5039687;28;20124;-84
2022/05/25 08:31:42;;;;;;;4.38;0.75;;;;;;;23.55;44.77;99786.09;5039001;28;20052;-85
2022/05/25 08:34:07;;;;;;;2.50;0.80;;;;;;;23.57;44.75;99792.16;5039699;28;20208;-84
2022/05/25 08:36:33;;;;;;;5.82;1.00;;;;;;;23.55;44.77;99791.41;5058247;28;20128;-86
2022/05/25 08:38:59;;;;;;;2.60;0.68;;;;;;;23.58;44.77;99795.69;5040963;28;20056;-86
2022/05/25 08:41:30;;;;;;;4.78;0.77;;;;;;;23.57;44.54;99802.81;5060240;28;20082;-85
2022/05/25 08:43:58;;;;;;;5.05;0.80;;;;;;;23.58;44.70;99796.53;5040676;28;20098;-85
2022/05/25 08:46:25;;;;;;;3.65;0.70;;;;;;;23.61;44.58;99806.13;5041346;28;20466;-84
2022/05/25 08:48:52;;;;;;;2.58;0.65;;;;;;;23.62;44.67;99802.50;5041250;28;20443;-85
2022/05/25 08:51:22;;;;;;;5.38;0.70;;;;;;;23.60;44.42;99794.59;5040957;28;20351;-85
2022/05/25 08:53:48;;;;;;;2.30;0.60;;;;;;;23.62;44.46;99799.81;5042123;28;20098;-85
2022/05/25 08:56:29;;;;;;;3.53;0.80;;;;;;;23.64;44.38;99800.59;5041513;28;20021;-86
2022/05/25 08:59:08;;;;;;;2.78;0.50;;;;;;;23.66;44.46;99803.13;5043058;28;20466;-86
2022/05/25 09:01:51;;;;;;;1.60;0.30;;;;;;;23.68;44.13;99817.22;5049756;28;20045;-86
2022/05/25 09:04:36;;;;;;;2.65;0.47;;;;;;;23.69;44.37;99813.59;5080733;28;20028;-86
2022/05/25 09:07:18;;;;;;;3.22;0.63;;;;;;;23.69;44.22;99811.78;5062345;28;20129;-85
2022/05/25 09:09:47;;;;;;;3.65;0.80;;;;;;;23.70;44.15;99809.97;5058151;28;20016;-84
2022/05/25 09:12:22;;;;;;;3.85;0.73;;;;;;;23.72;44.15;99810.72;5058524;28;20054;-85
2022/05/25 09:15:13;;;;;;;2.08;0.50;;;;;;;23.74;44.29;99806.16;5058788;28;20435;-85
2022/05/25 09:17:47;;;;;;;5.32;1.00;;;;;;;23.74;44.21;99808.81;5078616;28;20016;-84
2022/05/25 09:20:17;;;;;;;2.47;0.68;;;;;;;23.73;44.13;99815.94;5059502;28;20025;-84
2022/05/25 09:22:43;;;;;;;2.85;0.80;;;;;;;23.76;44.13;99814.88;5060172;28;20024;-85
2022/05/25 09:25:12;;;;;;;2.50;0.60;;;;;;;23.74;44.14;99816.81;5059656;28;20093;-85
2022/05/25 09:27:43;;;;;;;5.47;1.10;;;;;;;23.75;44.20;99829.19;5059749;28;20472;-85
2022/05/25 09:30:10;;;;;;;3.58;0.57;;;;;;;23.77;44.00;99821.09;5059524;28;20013;-84
2022/05/25 09:32:55;;;;;;;3.13;0.70;;;;;;;23.79;43.82;99828.03;5059367;28;20084;-85
2022/05/25 09:36:06;;;;;;;1.70;0.38;;;;;;;23.80;43.95;99831.53;5059008;28;20056;-85
2022/05/25 09:38:32;;;;;;;4.32;0.90;;;;;;;23.83;44.11;99824.16;5046079;28;20037;-83
2022/05/25 09:41:04;;;;;;;2.55;0.47;;;;;;;23.83;43.93;99824.16;5056686;28;20039;-82
2022/05/25 09:43:31;;;;;;;3.15;0.60;;;;;;;23.85;43.85;99834.72;5058518;28;20020;-84
2022/05/25 09:46:04;;;;;;;1.42;0.38;;;;;;;23.83;43.81;99842.81;5060285;28;20115;-84
2022/05/25 09:48:32;;;;;;;2.40;0.57;;;;;;;23.84;43.80;99833.91;5060996;28;20020;-85
2022/05/25 09:51:23;;;;;;;1.33;0.32;;;;;;;23.86;43.65;99831.09;5060483;28;20043;-84
2022/05/25 09:53:53;;;;;;;2.90;0.73;;;;;;;23.87;43.62;99824.81;5061784;28;20032;-84
2022/05/25 09:56:42;;;;;;;2.25;0.40;;;;;;;23.89;43.61;99835.38;5059990;28;20117;-84
2022/05/25 09:59:32;;;;;;;2.90;0.98;;;;;;;23.90;43.58;99837.06;5060014;28;20473;-84
2022/05/25 10:01:58;;;;;;;1.15;0.40;;;;;;;23.89;43.57;99841.56;5053238;28;20044;-83
2022/05/25 10:04:52;;;;;;;1.60;0.40;;;;;;;23.91;43.42;99836.97;5061967;28;20029;-83
2022/05/25 10:07:40;;;;;;;2.22;0.68;;;;;;;23.93;43.71;99852.88;5079415;28;20036;-84
2022/05/25 10:10:12;;;;;;;2.75;0.52;;;;;;;23.94;43.75;99843.91;5063190;28;20036;-84
2022/05/25 10:12:42;;;;;;;2.47;0.40;;;;;;;23.94;43.58;99854.56;5061998;28;20154;-84
2022/05/25 10:15:28;;;;;;;2.80;0.82;;;;;;;23.94;43.41;99838.59;5061834;28;20119;-84
2022/05/25 10:17:54;;;;;;;1.65;0.35;;;;;;;23.95;43.38;99845.63;5061523;28;20060;-84
2022/05/25 10:20:29;;;;;;;2.50;0.57;;;;;;;23.95;43.66;99856.28;5062132;28;20040;-84
2022/05/25 10:23:07;;;;;;;2.30;0.43;;;;;;;23.95;43.58;99864.28;5079868;28;20369;-84
2022/05/25 10:25:40;;;;;;;1.58;0.45;;;;;;;23.96;43.34;99855.31;5061500;28;20035;-85
2022/05/25 10:28:18;;;;;;;1.42;0.47;;;;;;;23.97;43.35;99859.72;5061051;28;20028;-85
2022/05/25 10:36:47;;;;;;;2.15;0.40;;;;;;;23.98;43.37;99869.41;5078990;28;20051;-84
2022/05/25 10:39:19;;;;;;;1.00;0.45;;;;;;;23.98;43.56;99872.06;5078881;28;20037;-84
2022/05/25 10:42:23;;;;;;;2.67;0.57;;;;;;;23.99;43.51;99866.66;5078777;28;20032;-85
2022/05/25 10:45:12;;;;;;;3.80;0.90;;;;;;;24.02;43.47;99865.56;5059118;28;20127;-86
2022/05/25 10:47:54;;;;;;;1.65;0.40;;;;;;;24.01;43.35;99861.19;5060670;28;20110;-84
2022/05/25 10:50:26;;;;;;;3.13;0.73;;;;;;;24.02;43.13;99862.91;5061055;28;20020;-84
2022/05/25 10:53:11;;;;;;;1.85;0.57;;;;;;;24.02;43.03;99867.41;5060262;28;20056;-84
2022/05/25 10:55:54;;;;;;;3.05;0.50;;;;;;;23.99;42.82;99873.78;5060032;28;20032;-84
2022/05/25 10:58:44;;;;;;;3.20;0.65;;;;;;;23.99;42.64;99890.66;5078449;28;20035;-84
2022/05/25 11:01:20;;;;;;;3.72;0.80;;;;;;;23.98;42.77;99878.25;5061052;28;20044;-86
2022/05/25 11:04:30;;;;;;;3.15;0.60;;;;;;;23.97;42.52;99889.03;5061138;28;20024;-85
2022/05/25 11:07:27;;;;;;;3.40;0.77;;;;;;;23.98;42.52;99888.06;4983670;28;20064;-85
2022/05/25 11:09:59;;;;;;;2.90;0.70;;;;;;;23.97;42.34;99889.03;5062807;28;20021;-85
2022/05/25 11:12:31;;;;;;;6.22;0.93;;;;;;;23.96;42.18;99884.63;5063533;28;20071;-85
2022/05/25 11:15:13;;;;;;;3.10;0.73;;;;;;;23.98;42.51;99883.56;5063735;28;20431;-84
2022/05/25 11:18:00;;;;;;;4.65;1.00;;;;;;;23.99;42.58;99892.44;5081573;28;20028;-86
2022/05/25 11:20:39;;;;;;;7.15;1.60;;;;;;;24.01;42.91;99890.50;5058649;28;20052;-83
2022/05/25 11:23:29;;;;;;;8.85;2.25;;;;;;;24.02;42.96;99884.22;5079576;28;20024;-84
2022/05/25 11:26:41;;;;;;;9.30;2.60;;;;;;;24.04;43.16;99890.31;5082133;28;20104;-84
2022/05/25 11:29:31;;;;;;;10.00;3.05;;;;;;;24.05;43.04;99881.38;5065211;28;20059;-85
2022/05/25 11:32:19;;;;;;;11.45;3.72;;;;;;;24.06;43.09;99885.72;5063930;28;20024;-83
2022/05/25 11:35:04;;;;;;;12.27;3.63;;;;;;;24.07;43.17;99892.78;5022978;28;20373;-83
2022/05/25 11:37:49;;;;;;;10.48;3.95;;;;;;;24.06;43.20;99893.72;5058733;28;20043;-84
2022/05/25 11:40:39;;;;;;;13.10;4.70;;;;;;;24.07;43.22;99895.47;5059544;28;20086;-84
2022/05/25 11:43:28;;;;;;;11.85;3.90;;;;;;;24.08;43.28;99904.31;5061675;28;20024;-83
2022/05/25 11:46:21;;;;;;;11.85;4.47;;;;;;;24.08;43.65;99899.88;5048471;28;20036;-83
2022/05/25 11:49:02;;;;;;;12.20;5.00;;;;;;;24.09;43.80;99895.38;5060493;28;20090;-84
2022/05/25 11:51:42;;;;;;;13.98;4.65;;;;;;;24.09;44.14;99898.03;5078932;28;20024;-84
2022/05/25 11:54:32;;;;;;;13.45;5.05;;;;;;;24.11;43.88;99886.31;5060605;28;20024;-84
2022/05/25 11:57:04;;;;;;;13.23;4.95;;;;;;;24.12;43.97;99888.00;5061222;28;20035;-86
2022/05/25 11:59:57;;;;;;;12.55;4.40;;;;;;;24.15;43.95;99888.78;5060885;28;20032;-85
2022/05/25 12:02:27;;;;;;;11.55;3.83;;;;;;;24.15;43.85;99883.44;5061244;28;20044;-85
2022/05/25 12:05:50;;;;;;;9.43;3.78;;;;;;;24.17;43.66;99881.53;5061899;28;20453;-85
2022/05/25 12:08:43;;;;;;;11.80;3.92;;;;;;;24.18;43.69;99888.56;5060159;28;20024;-87
2022/05/25 12:11:27;;;;;;;9.43;3.30;;;;;;;24.19;43.77;99887.59;5059477;28;20020;-84
2022/05/25 12:14:24;;;;;;;11.65;3.00;;;;;;;24.19;43.40;99890.25;5076730;28;20024;-85
2022/05/25 12:16:52;;;;;;;;;;;;;;;24.20;43.42;99886.63;5076976;28;20035;-85
2022/05/25 12:19:27;;;;;;;7.85;2.45;;;;;;;24.21;43.59;99893.69;5061619;28;19912;-87
2022/05/25 12:22:02;;;;;;;9.50;2.88;;;;;;;24.22;43.32;99887.41;5059585;28;20039;-87
2022/05/25 12:24:33;;;;;;;7.53;2.50;;;;;;;24.22;43.24;99884.72;5060539;28;20367;-86
2022/05/25 12:27:03;;;;;;;6.30;2.40;;;;;;;24.22;43.19;99885.56;5060281;28;20035;-87
2022/05/25 12:29:40;;;;;;;5.65;2.22;;;;;;;24.22;42.99;99887.41;5060436;28;20050;-86
2022/05/25 12:32:08;;;;;;;6.38;2.45;;;;;;;24.23;42.96;99881.09;5061341;28;20032;-85